createdAt,value
2019-02-23T00:00:48.625Z,23.90
2019-02-23T00:03:17.650Z,19.90
2019-02-23T00:05:46.681Z,22.98
2019-02-23T00:08:15.654Z,22.35
2019-02-23T00:10:44.662Z,18.42
2019-02-23T00:13:15.180Z,24.32
2019-02-23T00:15:44.193Z,23.52
2019-02-23T00:18:13.202Z,21.77
2019-02-23T00:20:42.220Z,20.55
2019-02-23T00:23:11.277Z,23.55
2019-02-23T00:25:40.287Z,17.80
2019-02-23T00:28:09.325Z,21.65
2019-02-23T00:30:38.333Z,22.87
2019-02-23T00:33:07.320Z,22.27
2019-02-23T00:35:36.351Z,22.75
2019-02-23T00:38:05.347Z,23.45
2019-02-23T00:40:34.369Z,26.45
2019-02-23T00:43:03.318Z,25.92
2019-02-23T00:45:32.338Z,21.07
2019-02-23T00:48:01.268Z,21.90
2019-02-23T00:50:30.201Z,24.52
2019-02-23T00:52:59.118Z,26.40
2019-02-23T00:55:27.990Z,20.12
2019-02-23T00:57:56.972Z,22.10
2019-02-23T01:00:30.122Z,23.10
2019-02-23T01:02:59.066Z,17.05
2019-02-23T01:05:27.981Z,25.50
2019-02-23T01:07:57.913Z,17.80
2019-02-23T01:10:26.998Z,21.60
2019-02-23T01:12:55.931Z,21.02
2019-02-23T01:15:24.940Z,23.38
2019-02-23T01:17:53.973Z,19.52
2019-02-23T01:20:23.093Z,22.32
2019-02-23T01:22:52.106Z,22.85
2019-02-23T01:25:21.195Z,20.50
2019-02-23T01:27:50.136Z,27.95
2019-02-23T01:30:19.115Z,22.85
2019-02-23T01:32:48.155Z,20.15
2019-02-23T01:35:17.211Z,31.27
2019-02-23T01:37:46.229Z,22.05
2019-02-23T01:40:15.275Z,19.95
2019-02-23T01:42:44.207Z,27.90
2019-02-23T01:45:13.213Z,24.18
2019-02-23T01:47:42.229Z,20.77
2019-02-23T01:50:11.254Z,22.30
2019-02-23T01:52:40.265Z,22.58
2019-02-23T01:55:09.630Z,21.93
2019-02-23T01:57:38.662Z,23.00
2019-02-23T02:00:10.929Z,22.00
2019-02-23T02:02:40.710Z,18.57
2019-02-23T02:05:10.063Z,21.75
2019-02-23T02:07:39.086Z,23.40
2019-02-23T02:10:09.393Z,21.87
2019-02-23T02:12:38.532Z,21.12
2019-02-23T02:15:09.889Z,25.17
2019-02-23T02:17:38.895Z,24.37
2019-02-23T02:20:11.255Z,21.90
2019-02-23T02:22:41.894Z,21.50
2019-02-23T02:25:10.897Z,21.35
2019-02-23T02:27:39.885Z,20.85
2019-02-23T02:30:10.609Z,20.50
2019-02-23T02:32:39.623Z,21.97
2019-02-23T02:35:09.645Z,21.15
2019-02-23T02:37:38.661Z,24.55
2019-02-23T02:40:13.465Z,22.87
2019-02-23T02:42:42.386Z,24.87
2019-02-23T02:45:11.611Z,22.22
2019-02-23T02:47:40.548Z,21.65
2019-02-23T02:50:23.369Z,21.33
2019-02-23T02:52:41.350Z,24.63
2019-02-23T02:55:10.306Z,21.50
2019-02-23T02:57:39.310Z,24.35
2019-02-23T03:00:10.507Z,25.12
2019-02-23T03:02:42.740Z,24.18
2019-02-23T03:05:11.781Z,24.37
2019-02-23T03:07:40.707Z,26.87
2019-02-23T03:10:09.690Z,25.68
2019-02-23T03:12:38.721Z,22.17
2019-02-23T03:15:07.905Z,27.00
2019-02-23T03:17:38.958Z,24.45
2019-02-23T03:20:08.621Z,22.67
2019-02-23T03:22:37.550Z,28.07
2019-02-23T03:25:06.760Z,20.48
2019-02-23T03:27:38.201Z,25.50
2019-02-23T03:30:08.963Z,22.60
2019-02-23T03:32:37.890Z,28.25
2019-02-23T03:35:08.538Z,22.32
2019-02-23T03:37:40.560Z,24.57
2019-02-23T03:40:09.808Z,24.27
2019-02-23T03:42:38.777Z,21.93
2019-02-23T03:45:09.088Z,28.00
2019-02-23T03:47:38.088Z,22.50
2019-02-23T03:50:07.342Z,26.35
2019-02-23T03:52:36.258Z,26.85
2019-02-23T03:55:05.609Z,20.45
2019-02-23T03:57:34.456Z,27.73
2019-02-23T04:00:06.890Z,25.95
2019-02-23T04:02:35.799Z,27.30
2019-02-23T04:05:05.513Z,23.55
2019-02-23T04:07:34.469Z,28.90
2019-02-23T04:10:03.355Z,24.92
2019-02-23T04:12:34.313Z,24.47
2019-02-23T04:15:03.082Z,28.05
2019-02-23T04:17:32.079Z,26.90
2019-02-23T04:20:01.386Z,27.13
2019-02-23T04:22:30.677Z,26.10
2019-02-23T04:24:59.685Z,25.12
2019-02-23T04:27:28.543Z,25.57
2019-02-23T04:29:57.541Z,28.40
2019-02-23T04:32:26.413Z,27.70
2019-02-23T04:35:04.251Z,25.82
2019-02-23T04:37:33.183Z,29.35
2019-02-23T04:40:02.054Z,29.52
2019-02-23T04:42:30.897Z,27.55
2019-02-23T04:44:59.787Z,29.67
2019-02-23T04:47:28.775Z,30.02
2019-02-23T04:49:57.773Z,37.83
2019-02-23T04:52:26.802Z,31.33
2019-02-23T04:54:55.793Z,33.67
2019-02-23T04:57:24.658Z,30.32
2019-02-23T04:59:53.480Z,27.62
2019-02-23T05:02:22.423Z,30.88
2019-02-23T05:04:51.341Z,32.73
2019-02-23T05:07:20.331Z,31.37
2019-02-23T05:09:49.209Z,35.88
2019-02-23T05:12:18.039Z,35.78
2019-02-23T05:14:46.962Z,35.80
2019-02-23T05:17:16.876Z,41.30
2019-02-23T05:19:45.865Z,35.88
2019-02-23T05:22:14.788Z,36.00
2019-02-23T05:24:43.687Z,32.35
2019-02-23T05:27:12.608Z,33.38
2019-02-23T05:29:41.543Z,36.03
2019-02-23T05:32:10.577Z,36.10
2019-02-23T05:34:39.413Z,29.57
2019-02-23T05:37:08.423Z,37.10
2019-02-23T05:39:37.333Z,35.30
2019-02-23T05:42:06.356Z,32.85
2019-02-23T05:44:35.198Z,33.30
2019-02-23T05:47:04.509Z,35.73
2019-02-23T05:49:36.497Z,35.35
2019-02-23T05:52:04.089Z,37.60
2019-02-23T05:54:33.016Z,34.53
2019-02-23T05:57:02.048Z,34.60
2019-02-23T05:59:30.907Z,34.45
2019-02-23T06:01:59.813Z,33.98
2019-02-23T06:04:28.747Z,32.80
2019-02-23T06:06:57.731Z,33.08
2019-02-23T06:09:26.579Z,37.17
2019-02-23T06:11:55.504Z,33.33
2019-02-23T06:14:24.349Z,35.98
2019-02-23T06:16:53.326Z,37.53
2019-02-23T06:19:24.225Z,43.98
2019-02-23T06:21:54.730Z,38.28
2019-02-23T06:24:23.953Z,36.03
2019-02-23T06:26:54.011Z,32.10
2019-02-23T06:29:23.957Z,34.43
2019-02-23T06:31:56.036Z,35.15
2019-02-23T06:34:25.024Z,29.85
2019-02-23T06:36:53.969Z,37.42
2019-02-23T06:39:22.981Z,36.45
2019-02-23T06:41:51.901Z,36.10
2019-02-23T06:44:20.754Z,34.45
2019-02-23T06:46:49.789Z,34.55
2019-02-23T06:49:18.633Z,34.85
2019-02-23T06:51:47.553Z,33.30
2019-02-23T06:54:16.416Z,30.23
2019-02-23T06:56:46.356Z,31.50
2019-02-23T06:59:15.204Z,33.30
2019-02-23T07:01:44.311Z,35.03
2019-02-23T07:04:13.225Z,29.87
2019-02-23T07:06:42.605Z,31.85
2019-02-23T07:09:11.540Z,33.15
2019-02-23T07:11:40.529Z,33.25
2019-02-23T07:14:09.856Z,34.30
2019-02-23T07:16:38.799Z,34.55
2019-02-23T07:19:07.804Z,34.20
2019-02-23T07:21:36.785Z,33.15
2019-02-23T07:24:05.803Z,38.67
2019-02-23T07:26:35.721Z,35.65
2019-02-23T07:29:04.763Z,37.70
2019-02-23T07:31:34.766Z,39.30
2019-02-23T07:34:04.152Z,33.95
2019-02-23T07:36:33.117Z,35.98
2019-02-23T07:39:02.215Z,36.00
2019-02-23T07:41:31.313Z,39.08
2019-02-23T07:44:00.400Z,38.10
2019-02-23T07:46:29.494Z,38.08
2019-02-23T07:48:58.468Z,35.08
2019-02-23T07:51:27.497Z,39.15
2019-02-23T07:53:56.401Z,37.73
2019-02-23T07:56:25.619Z,36.05
2019-02-23T07:58:54.689Z,40.50
2019-02-23T08:01:23.785Z,38.08
2019-02-23T08:03:52.837Z,38.53
2019-02-23T08:06:21.879Z,36.83
2019-02-23T08:08:50.820Z,37.73
2019-02-23T08:11:19.917Z,39.48
2019-02-23T08:13:48.920Z,38.00
2019-02-23T08:16:17.970Z,35.50
2019-02-23T08:18:47.058Z,34.80
2019-02-23T08:21:16.052Z,34.13
2019-02-23T08:23:44.937Z,36.60
2019-02-23T08:26:14.112Z,38.48
2019-02-23T08:28:43.082Z,42.05
2019-02-23T08:31:13.410Z,33.48
2019-02-23T08:33:42.773Z,35.78
2019-02-23T08:36:11.874Z,36.08
2019-02-23T08:38:43.257Z,31.68
2019-02-23T08:41:18.340Z,32.28
2019-02-23T08:43:47.414Z,32.93
2019-02-23T08:46:39.605Z,30.30
2019-02-23T08:49:14.661Z,37.53
2019-02-23T08:51:43.609Z,30.20
2019-02-23T08:54:14.338Z,35.60
2019-02-23T08:56:44.389Z,31.00
2019-02-23T08:59:18.263Z,34.80
2019-02-23T09:02:05.720Z,27.32
2019-02-23T09:04:34.866Z,29.92
2019-02-23T09:07:03.897Z,28.77
2019-02-23T09:09:39.275Z,33.20
2019-02-23T09:12:08.319Z,25.20
2019-02-23T09:14:37.355Z,33.65
2019-02-23T09:17:09.636Z,26.25
2019-02-23T09:19:40.989Z,33.25
2019-02-23T09:22:31.694Z,28.57
2019-02-23T09:25:09.809Z,33.23
2019-02-23T09:27:42.438Z,29.23
2019-02-23T09:30:12.793Z,31.37
2019-02-23T09:32:41.854Z,30.68
2019-02-23T09:35:11.115Z,25.82
2019-02-23T09:37:41.280Z,26.12
2019-02-23T09:40:10.509Z,30.45
2019-02-23T09:42:39.758Z,32.28
2019-02-23T09:45:11.353Z,27.45
2019-02-23T09:47:40.420Z,26.42
2019-02-23T09:50:09.464Z,22.15
2019-02-23T09:52:40.106Z,29.52
2019-02-23T09:55:28.954Z,24.20
2019-02-23T09:57:59.288Z,19.80
2019-02-23T10:00:29.674Z,26.40
2019-02-23T10:03:10.941Z,26.62
2019-02-23T10:05:48.968Z,24.77
2019-02-23T10:08:19.119Z,21.62
2019-02-23T10:11:06.581Z,22.45
2019-02-23T10:13:36.726Z,25.17
2019-02-23T10:16:09.292Z,21.85
2019-02-23T10:18:38.602Z,21.07
2019-02-23T10:21:07.686Z,18.73
2019-02-23T10:23:36.882Z,20.32
2019-02-23T10:26:05.839Z,19.62
2019-02-23T10:28:34.870Z,20.72
2019-02-23T10:31:05.957Z,20.62
2019-02-23T10:33:38.412Z,19.70
2019-02-23T10:36:07.480Z,20.00
2019-02-23T10:38:36.553Z,17.30
2019-02-23T10:41:05.547Z,16.97
2019-02-23T10:43:34.697Z,16.97
2019-02-23T10:46:03.634Z,20.02
2019-02-23T10:48:33.581Z,15.48
2019-02-23T10:51:03.629Z,18.67
2019-02-23T10:53:33.665Z,15.30
2019-02-23T10:56:02.702Z,22.45
2019-02-23T10:58:33.818Z,18.35
2019-02-23T11:01:02.828Z,20.30
2019-02-23T11:03:31.877Z,19.52
2019-02-23T11:06:15.238Z,15.20
2019-02-23T11:08:46.288Z,12.95
2019-02-23T11:11:15.302Z,16.10
2019-02-23T11:13:50.219Z,18.48
2019-02-23T11:16:19.284Z,16.25
2019-02-23T11:18:48.299Z,15.38
2019-02-23T11:21:18.399Z,15.88
2019-02-23T11:23:47.501Z,16.95
2019-02-23T11:26:18.675Z,14.93
2019-02-23T11:28:47.694Z,13.40
2019-02-23T11:31:16.621Z,12.37
2019-02-23T11:33:45.678Z,14.45
2019-02-23T11:36:14.709Z,13.05
2019-02-23T11:38:43.729Z,15.00
2019-02-23T11:41:18.554Z,16.50
2019-02-23T11:43:50.664Z,17.57
2019-02-23T11:46:25.763Z,15.23
2019-02-23T11:48:54.709Z,14.55
2019-02-23T11:51:23.829Z,15.63
2019-02-23T11:53:55.268Z,15.50
2019-02-23T11:56:23.777Z,15.03
2019-02-23T11:58:52.914Z,11.80
2019-02-23T12:01:21.930Z,16.23
2019-02-23T12:03:53.226Z,13.40
2019-02-23T12:06:22.237Z,15.35
2019-02-23T12:08:53.385Z,13.35
2019-02-23T12:11:22.616Z,11.12
2019-02-23T12:13:51.726Z,13.78
2019-02-23T12:16:20.657Z,11.57
2019-02-23T12:18:50.930Z,13.80
2019-02-23T12:21:19.897Z,16.35
2019-02-23T12:23:48.888Z,11.48
2019-02-23T12:26:19.015Z,11.57
2019-02-23T12:28:51.221Z,12.00
2019-02-23T12:31:20.194Z,14.33
2019-02-23T12:33:51.287Z,11.50
2019-02-23T12:36:21.333Z,11.73
2019-02-23T12:38:50.478Z,13.90
2019-02-23T12:41:19.666Z,11.55
2019-02-23T12:43:48.708Z,10.63
2019-02-23T12:46:17.592Z,11.20
2019-02-23T12:48:46.557Z,11.68
2019-02-23T12:51:15.586Z,11.18
2019-02-23T12:53:44.438Z,15.00
2019-02-23T12:56:13.445Z,11.57
2019-02-23T12:58:42.481Z,10.90
2019-02-23T13:01:11.489Z,11.05
2019-02-23T13:03:40.532Z,13.00
2019-02-23T13:06:09.540Z,14.47
2019-02-23T13:09:24.770Z,10.08
2019-02-23T13:12:15.955Z,11.20
2019-02-23T13:14:58.577Z,10.80
2019-02-23T13:17:58.025Z,11.12
2019-02-23T13:21:22.516Z,11.65
2019-02-23T13:24:28.233Z,11.53
2019-02-23T13:27:32.827Z,11.35
2019-02-23T13:30:18.230Z,11.33
2019-02-23T13:33:14.841Z,9.63
2019-02-23T13:36:09.766Z,11.45
2019-02-23T13:39:20.426Z,10.78
2019-02-23T13:42:14.706Z,10.82
2019-02-23T13:45:22.557Z,12.23
2019-02-23T13:48:24.990Z,13.20
2019-02-23T13:51:10.776Z,14.28
2019-02-23T13:54:16.394Z,12.43
2019-02-23T13:57:44.680Z,11.00
2019-02-23T14:00:56.268Z,12.00
2019-02-23T14:03:58.542Z,12.82
2019-02-23T14:07:17.596Z,12.70
2019-02-23T14:10:21.866Z,12.93
2019-02-23T14:13:32.057Z,11.33
2019-02-23T14:16:13.295Z,11.03
2019-02-23T14:19:28.034Z,11.15
2019-02-23T14:22:28.910Z,10.85
2019-02-23T14:25:26.553Z,9.30
2019-02-23T14:28:33.993Z,16.50
2019-02-23T14:31:09.195Z,10.40
2019-02-23T14:34:15.186Z,9.70
2019-02-23T14:37:07.193Z,12.65
2019-02-23T14:40:03.441Z,10.93
2019-02-23T14:43:01.319Z,18.60
2019-02-23T14:46:03.239Z,11.08
2019-02-23T14:49:11.449Z,10.00
2019-02-23T14:52:22.341Z,15.23
2019-02-23T14:55:30.653Z,10.68
2019-02-23T14:58:24.369Z,11.57
2019-02-23T15:01:34.818Z,9.48
2019-02-23T15:05:06.202Z,8.95
2019-02-23T15:08:19.442Z,11.22
2019-02-23T15:11:32.299Z,10.68
2019-02-23T15:14:37.173Z,10.95
2019-02-23T15:17:47.927Z,8.48
2019-02-23T15:20:44.895Z,10.13
2019-02-23T15:24:13.379Z,9.90
2019-02-23T15:27:19.114Z,9.93
2019-02-23T15:30:20.416Z,9.98
2019-02-23T15:33:33.818Z,9.10
2019-02-23T15:36:32.572Z,13.10
2019-02-23T15:39:28.358Z,10.98
2019-02-23T15:42:41.219Z,13.00
2019-02-23T15:46:09.455Z,16.17
2019-02-23T15:49:20.539Z,16.67
2019-02-23T15:51:49.566Z,11.73
2019-02-23T15:54:18.618Z,10.13
2019-02-23T15:56:47.611Z,14.53
2019-02-23T15:59:16.782Z,15.85
2019-02-23T16:01:45.931Z,11.73
2019-02-23T16:04:14.882Z,10.40
2019-02-23T16:06:43.962Z,13.60
2019-02-23T16:09:13.131Z,10.90
2019-02-23T16:11:45.086Z,11.57
2019-02-23T16:14:12.889Z,10.32
2019-02-23T16:16:41.898Z,8.93
2019-02-23T16:19:10.927Z,13.88
2019-02-23T16:21:39.950Z,11.48
2019-02-23T16:24:08.999Z,13.03
2019-02-23T16:26:38.020Z,10.80
2019-02-23T16:29:07.093Z,12.10
2019-02-23T16:31:36.118Z,11.63
2019-02-23T16:34:07.347Z,9.90
2019-02-23T16:36:35.845Z,10.55
2019-02-23T16:39:12.758Z,11.73
2019-02-23T16:41:41.795Z,10.53
2019-02-23T16:44:10.857Z,10.85
2019-02-23T16:46:58.998Z,9.53
2019-02-23T16:49:28.260Z,10.65
2019-02-23T16:51:58.422Z,10.63
2019-02-23T16:54:27.581Z,8.70
2019-02-23T16:56:56.678Z,10.80
2019-02-23T16:59:25.663Z,9.98
2019-02-23T17:01:54.829Z,11.40
2019-02-23T17:04:24.976Z,10.43
2019-02-23T17:06:54.020Z,11.10
2019-02-23T17:09:25.449Z,14.35
2019-02-23T17:11:54.947Z,10.13
2019-02-23T17:14:24.980Z,11.00
2019-02-23T17:16:55.098Z,10.35
2019-02-23T17:19:24.088Z,12.43
2019-02-23T17:21:55.207Z,13.20
2019-02-23T17:24:30.142Z,13.68
2019-02-23T17:26:59.214Z,11.83
2019-02-23T17:29:29.205Z,14.25
2019-02-23T17:31:58.350Z,12.10
2019-02-23T17:34:28.458Z,13.28
2019-02-23T17:36:58.465Z,12.68
2019-02-23T17:39:27.478Z,10.70
2019-02-23T17:41:57.582Z,16.87
2019-02-23T17:44:26.585Z,11.88
2019-02-23T17:46:55.649Z,12.50
2019-02-23T17:49:24.605Z,10.90
2019-02-23T17:52:02.743Z,14.50
2019-02-23T17:54:31.854Z,15.25
2019-02-23T17:57:03.718Z,12.85
2019-02-23T17:59:33.816Z,18.57
2019-02-23T18:02:02.877Z,15.48
2019-02-23T18:04:37.029Z,14.73
2019-02-23T18:07:05.998Z,10.58
2019-02-23T18:09:35.148Z,15.03
2019-02-23T18:12:04.238Z,27.80
2019-02-23T18:14:35.558Z,16.48
2019-02-23T18:17:04.578Z,13.95
2019-02-23T18:19:33.574Z,17.77
2019-02-23T18:22:10.589Z,12.23
2019-02-23T18:24:44.251Z,12.00
2019-02-23T18:27:28.436Z,13.70
2019-02-23T18:29:58.439Z,12.90
2019-02-23T18:32:28.483Z,13.38
2019-02-23T18:35:00.488Z,11.22
2019-02-23T18:37:29.896Z,14.10
2019-02-23T18:40:03.453Z,13.43
2019-02-23T18:42:32.626Z,33.42
2019-02-23T18:45:09.786Z,18.15
2019-02-23T18:47:57.549Z,12.03
2019-02-23T18:50:26.586Z,11.88
2019-02-23T18:53:01.774Z,11.25
2019-02-23T18:55:41.070Z,12.28
2019-02-23T18:58:17.905Z,12.63
2019-02-23T19:00:53.819Z,13.13
2019-02-23T19:03:29.604Z,11.40
2019-02-23T19:05:59.657Z,13.20
2019-02-23T19:08:28.777Z,14.53
2019-02-23T19:11:21.674Z,12.10
2019-02-23T19:13:58.542Z,12.10
2019-02-23T19:16:27.547Z,12.13
2019-02-23T19:18:56.725Z,13.58
2019-02-23T19:21:40.859Z,10.95
2019-02-23T19:24:09.958Z,10.85
2019-02-23T19:26:39.973Z,11.63
2019-02-23T19:29:10.005Z,11.03
2019-02-23T19:31:39.370Z,13.05
2019-02-23T19:34:08.519Z,10.55
2019-02-23T19:36:37.538Z,14.00
2019-02-23T19:39:07.191Z,12.55
2019-02-23T19:41:36.287Z,12.18
2019-02-23T19:44:05.802Z,12.37
2019-02-23T19:46:38.280Z,12.93
2019-02-23T19:49:07.329Z,11.08
2019-02-23T19:51:42.402Z,11.40
2019-02-23T19:54:13.843Z,12.10
2019-02-23T19:56:46.749Z,14.68
2019-02-23T19:59:14.711Z,14.78
2019-02-23T20:01:44.789Z,12.63
2019-02-23T20:04:14.830Z,16.05
2019-02-23T20:06:44.951Z,11.00
2019-02-23T20:09:18.097Z,11.18
2019-02-23T20:11:48.375Z,17.57
2019-02-23T20:14:23.525Z,12.88
2019-02-23T20:16:53.593Z,15.53
2019-02-23T20:19:23.425Z,11.03
2019-02-23T20:21:55.816Z,9.45
2019-02-23T20:24:27.938Z,10.30
2019-02-23T20:26:59.002Z,10.30
2019-02-23T20:29:29.098Z,12.53
2019-02-23T20:31:59.083Z,12.07
2019-02-23T20:34:34.034Z,13.15
2019-02-23T20:37:03.081Z,13.08
2019-02-23T20:39:32.118Z,11.10
2019-02-23T20:42:08.186Z,13.48
2019-02-23T20:44:40.721Z,13.83
2019-02-23T20:47:09.965Z,11.55
2019-02-23T20:49:38.898Z,9.95
2019-02-23T20:52:08.917Z,11.05
2019-02-23T20:54:37.998Z,14.93
2019-02-23T20:57:13.720Z,10.95
2019-02-23T20:59:38.933Z,13.08
2019-02-23T21:02:14.002Z,11.30
2019-02-23T21:04:43.045Z,12.35
2019-02-23T21:07:12.070Z,11.78
2019-02-23T21:09:41.222Z,11.68
2019-02-23T21:12:10.282Z,11.40
2019-02-23T21:14:39.313Z,12.82
2019-02-23T21:17:08.180Z,11.50
2019-02-23T21:19:38.322Z,12.07
2019-02-23T21:22:07.195Z,12.35
2019-02-23T21:24:36.089Z,14.80
2019-02-23T21:27:12.830Z,13.28
2019-02-23T21:29:38.762Z,13.20
2019-02-23T21:32:08.789Z,11.88
2019-02-23T21:34:43.929Z,11.93
2019-02-23T21:37:12.904Z,9.70
2019-02-23T21:39:41.898Z,13.95
2019-02-23T21:42:10.944Z,9.93
2019-02-23T21:44:40.084Z,11.15
2019-02-23T21:47:15.016Z,9.95
2019-02-23T21:49:46.073Z,11.73
2019-02-23T21:52:21.238Z,14.78
2019-02-23T21:54:53.559Z,9.55
2019-02-23T21:57:22.640Z,10.93
2019-02-23T21:59:51.747Z,11.43
2019-02-23T22:02:20.850Z,8.95
2019-02-23T22:04:49.978Z,11.88
2019-02-23T22:07:29.130Z,10.78
2019-02-23T22:09:58.275Z,9.95
2019-02-23T22:12:27.297Z,10.08
2019-02-23T22:14:56.268Z,10.80
2019-02-23T22:17:27.422Z,10.40
2019-02-23T22:19:57.538Z,9.48
2019-02-23T22:22:26.661Z,12.28
2019-02-23T22:24:56.753Z,10.58
2019-02-23T22:27:31.267Z,9.40
2019-02-23T22:29:58.710Z,10.50
2019-02-23T22:32:27.735Z,9.43
2019-02-23T22:34:56.786Z,9.85
2019-02-23T22:37:26.931Z,10.60
2019-02-23T22:40:03.063Z,10.80
2019-02-23T22:42:32.189Z,8.60
2019-02-23T22:45:01.283Z,10.53
2019-02-23T22:47:32.442Z,8.93
2019-02-23T22:50:03.557Z,11.48
2019-02-23T22:52:33.686Z,9.68
2019-02-23T22:55:04.855Z,12.05
2019-02-23T22:57:40.603Z,10.40
2019-02-23T23:00:06.015Z,10.05
2019-02-23T23:02:35.082Z,11.57
2019-02-23T23:05:04.370Z,10.80
2019-02-23T23:07:36.561Z,9.98
2019-02-23T23:10:11.789Z,12.90
2019-02-23T23:12:43.029Z,12.63
2019-02-23T23:15:13.176Z,10.58
2019-02-23T23:17:45.453Z,9.33
2019-02-23T23:20:16.567Z,13.18
2019-02-23T23:22:47.848Z,9.78
2019-02-23T23:25:16.835Z,14.30
2019-02-23T23:27:49.485Z,11.53
2019-02-23T23:30:24.635Z,11.25
2019-02-23T23:32:55.759Z,8.78
2019-02-23T23:35:24.847Z,11.33
2019-02-23T23:37:54.964Z,8.90
2019-02-23T23:40:31.976Z,9.85
2019-02-23T23:43:01.982Z,11.55
2019-02-23T23:45:30.992Z,11.45
2019-02-23T23:48:03.093Z,11.53
2019-02-23T23:50:32.830Z,9.98
2019-02-23T23:53:09.718Z,13.58
2019-02-23T23:55:38.766Z,11.08
2019-02-23T23:58:07.898Z,9.43
